Pagina principale
METAR-TAF:

METAR-TAF

Aeroporti :

Dübendorf, Svizzera

latitudine: 47-23-55N, longitudine: 8-38-53E, altezza: 448 m

Osservazione

Il bollettino è stato emesso 25 minuti fa, alle 07:50 UTC
Vento calmo
Temperature 4°C
Umidità 87%
Pressione 1010 hPa
Visibilità: 6000 m
Cielo coperto ad un'altezza di 1000 ft

METAR: LSMD 210750Z 00000KT 6000 OVC010 04/02 Q1010 RMK GRN

Ora: 09:15 (08:15 UTC)


TAF: mancante

Osservazioni e previsioni meteorologiche di più di 4000 aeroporti (messaggi METAR e TAF).

Le stazioni disponibili sono rappresentate dai dischi gialli e rossi sulla carta.

Puntare il mouse per vedere il nome della stazione.

Clicca sopra per visualizzare le osservazioni e previsioni meteorologiche.

Per cambiare la mappa : fare clic sui pulsanti verdi con una croce nera per ingrandire, il pulsante verde con un trattino per diminuire, o sulla freccia verde per le mappe adiacenti.


METAR-TAF: